Time;durP1;ratioP1;P1;durP2;ratioP2;P2;SDS_P1;SDS_P2;PMS_P1;PMS_P2;Temp;Humidity;BMP_temperature;BMP_pressure;BME280_temperature;BME280_humidity;BME280_pressure;Samples;Min_cycle;Max_cycle;Signal;HPM_P1;HPM_P2
2023/04/17 03:03:01;;;;;;;;;;;;;;;;;;;;;
2023/04/17 03:08:37;;;;;;;17.03;10.83;;;10.90;99.90;;;;;;6201355;23;20419;-76
2023/04/17 03:11:47;;;;;;;17.83;11.80;;;10.80;99.90;;;;;;6304916;22;20991;-77
2023/04/17 03:15:09;;;;;;;22.33;12.40;;;10.70;99.90;;;;;;6335008;22;20443;-76
2023/04/17 03:18:01;;;;;;;18.60;10.50;;;10.70;99.90;;;;;;6326819;22;20938;-73
2023/04/17 03:20:30;;;;;;;21.43;12.30;;;10.80;99.90;;;;;;6327663;22;20757;-76
2023/04/17 03:22:57;;;;;;;20.93;12.90;;;10.90;99.90;;;;;;6323274;22;20424;-72
2023/04/17 03:25:26;;;;;;;21.70;11.70;;;11.00;99.90;;;;;;6328870;22;20528;-74
2023/04/17 03:27:56;;;;;;;24.20;13.77;;;11.00;99.90;;;;;;6332648;22;20397;-73
2023/04/17 03:30:23;;;;;;;24.63;12.47;;;10.90;99.90;;;;;;6332352;22;20483;-75
2023/04/17 03:32:51;;;;;;;17.23;11.20;;;10.70;99.90;;;;;;6328408;22;20456;-73
2023/04/17 03:35:18;;;;;;;17.27;12.17;;;10.80;99.90;;;;;;6328297;22;20399;-76
2023/04/17 03:37:51;;;;;;;26.33;13.67;;;10.80;99.90;;;;;;6348563;22;20382;-73
2023/04/17 03:40:21;;;;;;;22.27;11.93;;;10.80;99.90;;;;;;6333404;22;20400;-76
2023/04/17 03:42:49;;;;;;;25.80;13.70;;;10.70;99.90;;;;;;6274483;22;20423;-76
2023/04/17 03:45:43;;;;;;;20.77;13.70;;;10.70;99.90;;;;;;6327175;22;20528;-76
2023/04/17 03:48:14;;;;;;;20.37;11.40;;;10.70;99.90;;;;;;6275763;22;20440;-76
2023/04/17 03:50:43;;;;;;;17.03;12.10;;;10.70;99.90;;;;;;6333823;22;20401;-76
2023/04/17 03:53:10;;;;;;;18.27;13.83;;;10.70;99.90;;;;;;6327683;22;20411;-76
2023/04/17 03:55:41;;;;;;;24.20;12.27;;;10.60;99.90;;;;;;6327784;22;20423;-73
2023/04/17 03:58:08;;;;;;;20.97;10.47;;;10.50;99.90;;;;;;6325312;22;20749;-76
2023/04/17 04:00:36;;;;;;;19.17;10.57;;;10.50;99.90;;;;;;6328011;22;20944;-74
2023/04/17 04:03:03;;;;;;;17.70;10.60;;;10.50;99.90;;;;;;6329814;22;20715;-76
2023/04/17 04:05:31;;;;;;;19.00;12.63;;;10.50;99.90;;;;;;6330341;22;20681;-76
2023/04/17 04:07:58;;;;;;;20.27;11.07;;;10.70;99.90;;;;;;6323118;22;20462;-74
2023/04/17 04:10:32;;;;;;;18.63;10.90;;;10.60;99.90;;;;;;6334240;22;20408;-73
2023/04/17 04:15:44;;;;;;;19.00;12.63;;;10.60;99.90;;;;;;6328752;22;20401;-76
2023/04/17 04:18:11;;;;;;;16.33;10.77;;;10.60;99.90;;;;;;6330969;22;20465;-76
2023/04/17 04:20:44;;;;;;;19.87;11.70;;;10.50;99.90;;;;;;6327861;22;20413;-75
2023/04/17 04:23:16;;;;;;;18.87;10.57;;;10.50;99.90;;;;;;6332453;22;20421;-77
2023/04/17 04:25:44;;;;;;;16.97;11.27;;;10.50;99.90;;;;;;6328391;22;20421;-75
2023/04/17 04:28:12;;;;;;;19.83;10.90;;;10.50;99.90;;;;;;6328566;22;20465;-76
2023/04/17 04:30:45;;;;;;;21.93;12.90;;;10.50;99.90;;;;;;6331921;22;20428;-74
2023/04/17 04:33:19;;;;;;;22.37;11.70;;;10.50;99.90;;;;;;6333308;22;20449;-74
2023/04/17 04:36:24;;;;;;;17.20;10.33;;;10.50;99.90;;;;;;6338604;22;20468;-76
2023/04/17 04:45:47;;;;;;;21.73;10.53;;;10.50;99.90;;;;;;6314512;22;20415;-76
2023/04/17 04:48:14;;;;;;;24.37;11.80;;;10.40;99.90;;;;;;6327681;22;20765;-75
2023/04/17 04:50:41;;;;;;;23.23;12.00;;;10.40;99.90;;;;;;6330391;22;20766;-76
2023/04/17 04:53:09;;;;;;;25.53;10.10;;;10.30;99.90;;;;;;6249131;22;20420;-76
2023/04/17 04:55:36;;;;;;;18.23;12.90;;;10.40;99.90;;;;;;6305129;22;20447;-75
2023/04/17 04:58:08;;;;;;;26.60;14.60;;;10.50;99.90;;;;;;6327130;22;20410;-76
2023/04/17 05:00:51;;;;;;;18.10;11.67;;;10.40;99.90;;;;;;6331806;22;20393;-76
2023/04/17 05:03:18;;;;;;;14.10;10.80;;;10.30;99.90;;;;;;6332815;22;20420;-74
2023/04/17 05:05:49;;;;;;;14.50;9.67;;;10.40;99.90;;;;;;6329416;22;20470;-74
2023/04/17 05:08:25;;;;;;;18.23;11.40;;;10.50;99.90;;;;;;6281004;22;20476;-75
2023/04/17 05:10:58;;;;;;;20.27;10.97;;;10.50;99.90;;;;;;6260272;22;20487;-76
2023/04/17 05:13:25;;;;;;;19.80;12.40;;;10.40;99.90;;;;;;6331648;22;20577;-75
2023/04/17 05:15:55;;;;;;;22.77;12.20;;;10.40;99.90;;;;;;6335851;22;20443;-74
2023/04/17 05:25:03;;;;;;;20.40;10.40;;;10.60;99.90;;;;;;6293039;22;20436;-75
2023/04/17 05:27:39;;;;;;;17.37;9.60;;;10.70;99.90;;;;;;6333456;22;20547;-75
2023/04/17 05:30:07;;;;;;;20.03;10.77;;;10.60;99.90;;;;;;6351455;22;20414;-74
2023/04/17 05:32:34;;;;;;;17.30;12.10;;;10.70;99.90;;;;;;6337271;22;20697;-74
2023/04/17 05:35:01;;;;;;;16.33;9.80;;;10.70;99.90;;;;;;6305152;22;20425;-76
2023/04/17 05:37:30;;;;;;;28.80;13.63;;;10.70;99.90;;;;;;6334946;22;20428;-75
2023/04/17 05:40:01;;;;;;;21.40;11.30;;;10.70;99.90;;;;;;6332438;22;20752;-76
2023/04/17 05:42:31;;;;;;;26.77;13.40;;;10.70;99.90;;;;;;6337957;22;20387;-75
2023/04/17 05:45:03;;;;;;;20.40;13.97;;;10.50;99.90;;;;;;6338664;22;20527;-77
2023/04/17 05:47:32;;;;;;;22.53;12.30;;;10.50;99.90;;;;;;6341081;22;20434;-76
2023/04/17 05:59:45;;;;;;;20.70;11.20;;;10.70;99.90;;;;;;6234841;23;20429;-76
2023/04/17 06:05:25;;;;;;;19.40;9.50;;;10.90;99.90;;;;;;6308064;22;20436;-75
2023/04/17 06:07:59;;;;;;;18.17;10.87;;;11.00;99.90;;;;;;6334641;22;20388;-76
2023/04/17 06:10:26;;;;;;;19.87;12.17;;;11.00;99.90;;;;;;6332293;22;20388;-76
2023/04/17 06:13:07;;;;;;;17.60;10.50;;;11.10;99.90;;;;;;6331103;22;20420;-77
2023/04/17 06:15:38;;;;;;;20.33;10.70;;;11.00;99.90;;;;;;6334863;22;20363;-76
2023/04/17 06:18:07;;;;;;;16.93;9.70;;;10.90;99.90;;;;;;6275573;22;21176;-76
2023/04/17 06:20:41;;;;;;;22.13;11.87;;;10.90;99.90;;;;;;6332983;22;20903;-76
2023/04/17 06:23:12;;;;;;;14.77;10.33;;;11.00;99.90;;;;;;6278803;22;20818;-76
2023/04/17 06:28:37;;;;;;;19.90;11.67;;;11.00;99.90;;;;;;6283619;22;20436;-76
2023/04/17 06:31:10;;;;;;;17.23;10.33;;;11.10;99.90;;;;;;6333180;22;20495;-77
2023/04/17 06:33:42;;;;;;;16.50;11.30;;;11.10;99.90;;;;;;6331564;22;20420;-76
2023/04/17 06:36:13;;;;;;;23.73;11.20;;;11.10;99.90;;;;;;6237410;22;20397;-76
2023/04/17 06:39:35;;;;;;;18.03;9.93;;;11.00;99.90;;;;;;6333971;22;20388;-76
2023/04/17 06:42:15;;;;;;;22.47;13.17;;;10.90;99.90;;;;;;6174023;23;20906;-75
2023/04/17 06:47:54;;;;;;;23.30;13.53;;;10.90;99.90;;;;;;6277725;22;20462;-75
2023/04/17 06:50:23;;;;;;;24.33;14.30;;;11.00;99.90;;;;;;6330417;22;20893;-77
2023/04/17 06:52:58;;;;;;;25.63;12.57;;;11.10;99.90;;;;;;6329523;22;20416;-76
2023/04/17 06:55:34;;;;;;;23.73;13.40;;;11.10;99.90;;;;;;6333507;22;20442;-76
2023/04/17 06:58:01;;;;;;;26.93;14.13;;;11.10;99.90;;;;;;6332691;22;20389;-76
2023/04/17 07:00:49;;;;;;;23.50;11.20;;;11.10;99.90;;;;;;6331041;22;20898;-76
2023/04/17 07:03:20;;;;;;;23.07;11.93;;;11.30;99.90;;;;;;6333731;22;20420;-76
2023/04/17 07:05:50;;;;;;;23.60;13.10;;;11.20;99.90;;;;;;6329824;22;20424;-73
2023/04/17 07:08:45;;;;;;;22.87;12.70;;;11.20;99.90;;;;;;6343885;22;20785;-76
2023/04/17 07:14:37;;;;;;;20.23;12.07;;;11.30;99.90;;;;;;6204446;23;20827;-75
2023/04/17 07:17:30;;;;;;;19.17;13.50;;;11.30;99.90;;;;;;6206087;23;20869;-74
2023/04/17 07:31:07;;;;;;;20.80;12.17;;;11.50;99.90;;;;;;6176252;23;20404;-75
2023/04/17 07:37:10;;;;;;;21.60;12.70;;;11.70;99.90;;;;;;6201379;23;20821;-76
2023/04/17 07:39:43;;;;;;;26.30;15.13;;;11.90;99.90;;;;;;6114298;23;20454;-76
2023/04/17 07:55:07;;;;;;;17.60;13.27;;;12.50;99.90;;;;;;6300131;22;20790;-75
2023/04/17 07:58:02;;;;;;;24.80;13.70;;;12.70;99.90;;;;;;6301855;22;20408;-75
2023/04/17 08:01:26;;;;;;;16.70;13.27;;;12.80;99.90;;;;;;6301607;22;20534;-77
2023/04/17 08:15:37;;;;;;;25.10;10.90;;;13.10;99.90;;;;;;6054094;23;20968;-76
2023/04/17 08:19:04;;;;;;;;;;;;;;;;;;;;;
2023/04/17 08:44:59;;;;;;;20.73;9.40;;;14.90;99.90;;;;;;6078435;23;21095;-75
2023/04/17 09:00:51;;;;;;;7.93;5.00;;;16.50;99.90;;;;;;5983983;23;20495;-77
2023/04/17 09:20:37;;;;;;;9.20;5.70;;;15.30;99.90;;;;;;5988796;23;20410;-77
2023/04/17 09:23:14;;;;;;;11.70;8.37;;;15.60;99.90;;;;;;6027063;23;20421;-77
2023/04/17 09:30:14;;;;;;;9.00;6.93;;;17.50;99.90;;;;;;5887234;24;20489;-77
2023/04/17 09:58:20;;;;;;;8.70;6.33;;;18.50;99.90;;;;;;5887190;24;20451;-77
2023/04/17 10:01:07;;;;;;;9.23;6.83;;;17.90;99.90;;;;;;5891713;24;20721;-78
2023/04/17 10:03:35;;;;;;;9.30;7.77;;;18.10;99.90;;;;;;5992786;23;20490;-76
2023/04/17 10:06:17;;;;;;;12.43;7.60;;;17.70;99.90;;;;;;5977854;23;20477;-76
2023/04/17 10:09:36;;;;;;;8.13;5.90;;;17.80;99.90;;;;;;6061020;23;20443;-77
2023/04/17 10:12:18;;;;;;;9.07;5.37;;;17.90;99.90;;;;;;6125158;23;20391;-73
2023/04/17 10:14:58;;;;;;;9.20;6.87;;;17.10;99.90;;;;;;6127680;23;20422;-76
2023/04/17 10:21:10;;;;;;;9.20;5.43;;;18.00;99.90;;;;;;6241401;23;20805;-75
2023/04/17 10:23:46;;;;;;;10.70;5.53;;;18.40;99.90;;;;;;6145798;23;20956;-76
2023/04/17 10:30:30;;;;;;;8.27;6.00;;;18.30;99.90;;;;;;6101321;23;20456;-75
2023/04/17 10:33:21;;;;;;;8.03;6.63;;;18.10;99.90;;;;;;6002820;23;20458;-76
2023/04/17 10:35:48;;;;;;;7.00;5.67;;;17.70;99.90;;;;;;6206986;23;20882;-75
2023/04/17 10:38:17;;;;;;;11.57;8.80;;;17.50;99.90;;;;;;6241614;23;20948;-77
2023/04/17 10:40:56;;;;;;;8.27;5.73;;;17.00;99.90;;;;;;6239204;23;20399;-76
2023/04/17 10:46:47;;;;;;;5.13;4.63;;;18.60;99.90;;;;;;6211530;23;20968;-77
2023/04/17 10:51:58;;;;;;;6.97;3.10;;;20.10;99.10;;;;;;6237012;23;20965;-76
2023/04/17 10:54:25;;;;;;;7.10;5.33;;;20.10;97.10;;;;;;6240105;22;20427;-76
2023/04/17 10:57:06;;;;;;;13.73;5.63;;;19.00;98.50;;;;;;6238437;23;20486;-75
2023/04/17 10:59:34;;;;;;;7.03;6.33;;;18.70;97.00;;;;;;6238180;23;20411;-77
2023/04/17 11:02:06;;;;;;;11.00;7.00;;;19.30;97.70;;;;;;6243009;23;20862;-76
2023/04/17 11:05:30;;;;;;;8.27;5.13;;;20.80;96.40;;;;;;6242286;23;20392;-77
2023/04/17 11:07:57;;;;;;;9.23;6.07;;;20.90;95.50;;;;;;6109335;23;20410;-73
2023/04/17 11:10:28;;;;;;;7.30;5.50;;;21.10;93.70;;;;;;6148940;23;20423;-74
2023/04/17 11:13:21;;;;;;;4.63;3.67;;;21.40;93.80;;;;;;6097332;23;20465;-76
2023/04/17 11:15:51;;;;;;;8.90;5.60;;;21.40;90.20;;;;;;6115575;23;20442;-77
2023/04/17 11:22:03;;;;;;;9.40;5.40;;;19.90;92.20;;;;;;5893715;24;20487;-77
2023/04/17 11:24:33;;;;;;;6.50;4.27;;;19.70;93.60;;;;;;5997994;23;20787;-78
2023/04/17 11:27:38;;;;;;;;;;;;;;;;;;;;;
2023/04/17 11:30:39;;;;;;;8.53;5.97;;;18.80;94.60;;;;;;5999099;23;20501;-76
2023/04/17 11:33:27;;;;;;;8.30;5.63;;;19.20;95.20;;;;;;6000888;23;20443;-77
2023/04/17 11:48:56;;;;;;;9.50;6.10;;;20.20;94.80;;;;;;6041537;23;20421;-76
2023/04/17 11:51:25;;;;;;;7.00;5.67;;;20.40;93.00;;;;;;6058552;23;20425;-76
2023/04/17 11:54:21;;;;;;;8.03;7.23;;;20.80;93.80;;;;;;6062351;23;20726;-76
2023/04/17 11:57:33;;;;;;;8.47;6.03;;;21.00;92.30;;;;;;5975755;23;20456;-76
2023/04/17 12:02:57;;;;;;;8.47;6.27;;;21.30;90.80;;;;;;6120507;23;20431;-75
2023/04/17 12:05:31;;;;;;;10.27;7.90;;;21.60;91.00;;;;;;6110681;23;20485;-78
2023/04/17 12:09:06;;;;;;;;;;;;;;;;;;;;;
2023/04/17 12:11:49;;;;;;;7.30;5.90;;;23.00;89.50;;;;;;6086080;23;20950;-76
2023/04/17 12:14:23;;;;;;;11.10;7.37;;;23.60;85.90;;;;;;6086745;23;20478;-76
2023/04/17 12:17:46;;;;;;;12.00;8.33;;;24.30;84.20;;;;;;6085030;23;20515;-76
2023/04/17 12:20:27;;;;;;;6.57;5.63;;;24.10;81.30;;;;;;6075290;23;20466;-76
2023/04/17 12:29:39;;;;;;;9.33;6.90;;;23.00;78.00;;;;;;6144394;23;20405;-76
2023/04/17 12:32:08;;;;;;;12.60;8.50;;;22.60;77.00;;;;;;6239407;22;20402;-76
2023/04/17 12:34:36;;;;;;;9.43;5.93;;;21.50;79.20;;;;;;6235960;23;20441;-76
2023/04/17 12:39:46;;;;;;;9.77;6.87;;;20.50;78.90;;;;;;6212268;23;20472;-76
2023/04/17 12:46:14;;;;;;;10.83;5.33;;;19.60;81.20;;;;;;6186434;23;20399;-77
2023/04/17 12:49:27;;;;;;;;;;;;;;;;;;;;;
2023/04/17 12:56:12;;;;;;;9.10;5.13;;;19.90;79.60;;;;;;6026074;23;20430;-75
2023/04/17 12:59:12;;;;;;;7.57;6.70;;;19.40;81.40;;;;;;6116866;23;20418;-76
2023/04/17 13:05:19;;;;;;;12.00;6.30;;;20.50;81.30;;;;;;6053251;23;20416;-74
2023/04/17 13:08:13;;;;;;;9.50;6.30;;;21.00;79.00;;;;;;6058357;23;20617;-76
2023/04/17 13:20:37;;;;;;;7.20;5.90;;;21.10;75.60;;;;;;5971477;23;20441;-77
2023/04/17 13:26:22;;;;;;;8.40;5.10;;;21.30;73.50;;;;;;6006930;23;20404;-77
2023/04/17 13:28:52;;;;;;;11.40;6.43;;;20.00;75.50;;;;;;6032652;23;20577;-77
2023/04/17 13:31:31;;;;;;;11.87;6.40;;;20.10;77.80;;;;;;6157842;23;20406;-76
2023/04/17 13:34:36;;;;;;;9.57;5.47;;;19.70;76.70;;;;;;6152201;23;20430;-76
2023/04/17 13:40:31;;;;;;;5.77;5.20;;;19.20;74.80;;;;;;6168171;23;20438;-74
2023/04/17 13:43:04;;;;;;;5.93;5.27;;;19.20;75.80;;;;;;6242145;22;20598;-76
2023/04/17 13:46:24;;;;;;;9.47;5.87;;;19.50;76.20;;;;;;6240621;23;20917;-73
2023/04/17 13:49:52;;;;;;;7.63;5.40;;;19.80;75.80;;;;;;6238322;23;20399;-77
2023/04/17 13:52:34;;;;;;;;;;;;;;;;;;;;;
2023/04/17 13:55:26;;;;;;;14.30;7.07;;;19.90;76.10;;;;;;6079551;23;20574;-76
2023/04/17 13:58:41;;;;;;;;;;;;;;;;;;;;;
2023/04/17 14:05:27;;;;;;;6.33;5.00;;;20.60;73.20;;;;;;6079950;23;20426;-76
2023/04/17 14:20:36;;;;;;;9.00;5.40;;;21.80;70.30;;;;;;5973686;24;20418;-76
2023/04/17 14:24:01;;;;;;;;;;;;;;;;;;;;;
2023/04/17 14:37:29;;;;;;;8.97;5.37;;;21.40;69.40;;;;;;6039994;23;20412;-76
2023/04/17 14:43:33;;;;;;;5.77;4.83;;;20.10;68.70;;;;;;6001894;23;20454;-74
2023/04/17 14:49:38;;;;;;;10.27;5.87;;;19.60;72.00;;;;;;5997446;23;20517;-75
2023/04/17 14:59:08;;;;;;;7.23;6.27;;;18.40;74.90;;;;;;6046815;23;20405;-76
2023/04/17 15:01:52;;;;;;;10.27;6.90;;;18.70;75.80;;;;;;6162761;23;20401;-76
2023/04/17 15:05:16;;;;;;;;;;;;;;;;;;;;;
2023/04/17 15:07:50;;;;;;;4.23;3.53;;;18.90;73.20;;;;;;6179457;23;20441;-76
2023/04/17 15:10:36;;;;;;;6.90;5.63;;;18.50;72.00;;;;;;6179354;23;20459;-77
2023/04/17 15:23:01;;;;;;;6.80;5.07;;;18.50;71.40;;;;;;6112632;23;21061;-76
2023/04/17 15:33:22;;;;;;;6.03;4.37;;;17.70;72.90;;;;;;6214549;22;20410;-77
2023/04/17 15:36:42;;;;;;;4.83;4.33;;;17.90;73.50;;;;;;6239331;23;20372;-75
2023/04/17 15:53:51;;;;;;;12.27;5.77;;;17.40;77.80;;;;;;6024746;23;20566;-76
2023/04/17 15:56:48;;;;;;;6.90;5.03;;;17.30;76.60;;;;;;6028511;23;20440;-76
2023/04/17 16:06:23;;;;;;;8.47;6.20;;;17.00;77.00;;;;;;5985791;23;20402;-76
2023/04/17 16:12:59;;;;;;;7.60;5.50;;;17.60;76.90;;;;;;6110651;22;20419;-73
2023/04/17 16:16:27;;;;;;;;;;;;;;;;;;;;;
2023/04/17 16:29:46;;;;;;;5.63;4.77;;;17.20;77.10;;;;;;6113200;23;20536;-73
2023/04/17 16:39:43;;;;;;;6.70;4.80;;;17.00;73.80;;;;;;5862212;24;20486;-76
2023/04/17 16:42:51;;;;;;;10.33;6.67;;;16.70;75.20;;;;;;6029953;23;20428;-76
2023/04/17 16:45:42;;;;;;;6.73;5.43;;;16.70;76.80;;;;;;6099714;23;20473;-75
2023/04/17 16:49:03;;;;;;;9.80;5.93;;;16.70;77.40;;;;;;6167992;23;20434;-75
2023/04/17 16:54:58;;;;;;;12.63;6.60;;;16.90;78.40;;;;;;6092468;23;20834;-76
2023/04/17 16:58:04;;;;;;;12.77;5.00;;;16.90;79.10;;;;;;6144431;23;21031;-75
2023/04/17 17:04:13;;;;;;;11.40;5.97;;;17.20;79.40;;;;;;6101856;23;20596;-77
2023/04/17 17:14:29;;;;;;;9.83;5.80;;;16.60;82.60;;;;;;5989512;23;20487;-75
2023/04/17 17:21:05;;;;;;;;;;;;;;;;;;;;;
2023/04/17 17:27:01;;;;;;;8.20;6.50;;;16.40;85.10;;;;;;6161592;23;20725;-73
2023/04/17 17:36:47;;;;;;;11.17;6.53;;;16.30;86.70;;;;;;6013568;23;20466;-76
2023/04/17 17:39:54;;;;;;;8.50;7.07;;;16.10;88.80;;;;;;6086905;23;20529;-77
2023/04/17 17:52:39;;;;;;;9.10;7.10;;;16.40;89.20;;;;;;6072465;23;20522;-76
2023/04/17 17:55:14;;;;;;;9.00;6.20;;;16.40;89.90;;;;;;6086864;23;20408;-76
2023/04/17 17:57:58;;;;;;;9.00;6.50;;;16.50;90.00;;;;;;6087677;23;20427;-76
2023/04/17 18:00:54;;;;;;;;;;;;;;;;;;;;;
2023/04/17 18:06:50;;;;;;;8.60;6.43;;;16.10;90.10;;;;;;6084456;23;20408;-76
2023/04/17 18:16:59;;;;;;;10.80;5.90;;;16.00;89.80;;;;;;6020096;23;20404;-76
2023/04/17 18:23:45;;;;;;;7.73;4.70;;;16.00;90.70;;;;;;6026704;23;20426;-74
2023/04/17 18:29:56;;;;;;;9.97;5.53;;;15.80;90.70;;;;;;5972724;24;20777;-76
2023/04/17 19:00:55;;;;;;;20.07;7.90;;;15.30;94.40;;;;;;5943329;24;20481;-76
2023/04/17 19:07:06;;;;;;;9.20;6.00;;;15.20;95.00;;;;;;5951531;24;20443;-75
2023/04/17 19:22:23;;;;;;;9.50;6.30;;;14.90;95.40;;;;;;6140146;23;20372;-73
2023/04/17 19:24:54;;;;;;;10.37;6.43;;;15.00;95.40;;;;;;6231298;23;20426;-74
2023/04/17 19:27:24;;;;;;;10.73;5.97;;;15.00;95.00;;;;;;6240121;23;20407;-75
2023/04/17 19:32:53;;;;;;;25.83;6.70;;;15.00;95.30;;;;;;6224358;22;20426;-76
2023/04/17 19:35:25;;;;;;;9.47;6.17;;;14.90;95.30;;;;;;6239579;23;20576;-75
2023/04/17 19:38:01;;;;;;;8.87;5.57;;;14.70;95.40;;;;;;6251446;23;20383;-74
2023/04/17 19:40:30;;;;;;;9.07;5.90;;;14.60;95.70;;;;;;6217462;23;20399;-74
2023/04/17 19:43:00;;;;;;;7.20;5.63;;;14.50;96.20;;;;;;6251903;22;20390;-72
2023/04/17 19:45:32;;;;;;;7.80;5.93;;;14.30;96.40;;;;;;6245213;23;20484;-76
2023/04/17 19:48:01;;;;;;;10.27;6.90;;;14.30;96.60;;;;;;6241240;23;20414;-74
2023/04/17 19:50:31;;;;;;;7.50;5.80;;;14.20;97.00;;;;;;6240297;23;20772;-74
2023/04/17 19:53:06;;;;;;;12.33;6.37;;;14.20;97.40;;;;;;6244112;22;20443;-74
2023/04/17 19:55:35;;;;;;;7.87;7.07;;;14.10;97.50;;;;;;6235553;23;20407;-75
2023/04/17 19:58:14;;;;;;;14.50;6.47;;;14.10;97.60;;;;;;6236495;23;20415;-75
2023/04/17 20:00:44;;;;;;;6.90;6.20;;;14.00;98.20;;;;;;6238634;23;20418;-75
2023/04/17 20:03:18;;;;;;;9.43;6.20;;;14.00;98.30;;;;;;6237587;22;20577;-74
2023/04/17 20:05:47;;;;;;;11.40;5.67;;;13.90;98.50;;;;;;6237533;23;21068;-75
2023/04/17 20:08:20;;;;;;;8.10;6.53;;;13.90;98.80;;;;;;6240204;23;21089;-75
2023/04/17 20:10:50;;;;;;;8.73;6.00;;;13.80;99.00;;;;;;6239886;23;20473;-75
2023/04/17 20:13:47;;;;;;;10.03;6.47;;;13.60;99.40;;;;;;6246258;22;20438;-72
2023/04/17 20:16:48;;;;;;;;;;;;;;;;;;;;;
2023/04/17 20:19:56;;;;;;;11.10;6.63;;;13.40;99.90;;;;;;6239374;23;20379;-75
2023/04/17 20:26:02;;;;;;;9.10;5.90;;;13.10;99.90;;;;;;6253789;23;20452;-73
2023/04/17 20:29:18;;;;;;;8.97;5.27;;;13.10;99.90;;;;;;6145805;23;21070;-76
2023/04/17 20:42:15;;;;;;;10.07;7.43;;;13.00;99.90;;;;;;6038222;23;20425;-76
2023/04/17 20:45:31;;;;;;;6.90;4.90;;;12.90;99.90;;;;;;6240609;23;20614;-76
2023/04/17 20:55:45;;;;;;;8.90;5.40;;;12.60;99.90;;;;;;6101750;23;20398;-76
2023/04/17 21:06:02;;;;;;;;;;;;;;;;;;;;;
2023/04/17 21:17:09;;;;;;;8.80;5.53;;;12.30;99.90;;;;;;5790155;24;20808;-74
2023/04/17 21:20:30;;;;;;;7.67;6.13;;;12.20;99.90;;;;;;5928146;24;20956;-75
2023/04/17 21:23:10;;;;;;;8.80;5.80;;;12.30;99.90;;;;;;5989902;23;20455;-75
2023/04/17 21:25:37;;;;;;;7.90;5.77;;;12.20;99.90;;;;;;6058731;23;20448;-75
2023/04/17 21:28:04;;;;;;;7.83;5.93;;;12.20;99.90;;;;;;6100166;23;20460;-74
2023/04/17 21:30:37;;;;;;;10.93;5.23;;;12.10;99.90;;;;;;6196686;23;20441;-72
2023/04/17 21:33:17;;;;;;;21.00;7.07;;;12.00;99.90;;;;;;6197180;23;20460;-76
2023/04/17 21:35:44;;;;;;;10.70;5.23;;;12.00;99.90;;;;;;6177010;23;20404;-75
2023/04/17 21:38:12;;;;;;;7.80;4.97;;;11.90;99.90;;;;;;6176118;23;20398;-75
2023/04/17 21:40:43;;;;;;;11.53;4.70;;;12.00;99.90;;;;;;6174211;23;20387;-72
2023/04/17 21:43:10;;;;;;;11.93;6.40;;;11.90;99.90;;;;;;6176069;23;20437;-75
2023/04/17 21:45:38;;;;;;;7.60;5.30;;;11.80;99.90;;;;;;6236149;23;20612;-74
2023/04/17 21:48:07;;;;;;;7.10;4.30;;;11.70;99.90;;;;;;6237884;23;20904;-75
2023/04/17 21:50:43;;;;;;;6.50;4.60;;;11.60;99.90;;;;;;6242303;23;20443;-75
2023/04/17 21:53:12;;;;;;;7.13;4.70;;;11.50;99.90;;;;;;6242199;22;20439;-75
2023/04/17 21:55:44;;;;;;;7.87;4.30;;;11.50;99.90;;;;;;6241447;23;20501;-76
2023/04/17 21:58:14;;;;;;;11.13;5.70;;;11.40;99.90;;;;;;6239764;23;20419;-75
2023/04/17 22:00:49;;;;;;;8.97;5.50;;;11.60;99.90;;;;;;6240626;23;20383;-76
2023/04/17 22:03:21;;;;;;;19.23;6.37;;;11.50;99.90;;;;;;6237120;22;20496;-74
2023/04/17 22:05:51;;;;;;;8.20;5.43;;;11.50;99.90;;;;;;6242449;23;20410;-74
2023/04/17 22:08:18;;;;;;;8.90;4.87;;;11.40;99.90;;;;;;6243315;23;20449;-75
2023/04/17 22:10:47;;;;;;;6.87;4.73;;;11.10;99.90;;;;;;6239577;23;20439;-75
2023/04/17 22:13:15;;;;;;;10.10;5.10;;;11.10;99.90;;;;;;6240822;22;20489;-76
2023/04/17 22:15:44;;;;;;;9.57;6.47;;;11.10;99.90;;;;;;6238555;23;20753;-75
2023/04/17 22:18:14;;;;;;;6.50;4.63;;;11.10;99.90;;;;;;6242894;23;20916;-74
2023/04/17 22:20:43;;;;;;;7.33;4.80;;;11.20;99.90;;;;;;6241063;23;20392;-75
2023/04/17 22:23:10;;;;;;;7.13;4.73;;;11.00;99.90;;;;;;6239273;22;20431;-76
2023/04/17 22:25:39;;;;;;;7.63;4.83;;;11.00;99.90;;;;;;6240339;23;20473;-75
2023/04/17 22:28:06;;;;;;;6.57;4.10;;;10.80;99.90;;;;;;6255062;23;20415;-75
2023/04/17 22:30:33;;;;;;;10.60;5.53;;;10.80;99.90;;;;;;6244207;23;20474;-75
2023/04/17 22:33:11;;;;;;;7.70;4.43;;;10.80;99.90;;;;;;6243095;22;20861;-75
2023/04/17 22:35:38;;;;;;;8.70;4.20;;;10.70;99.90;;;;;;6242308;23;20955;-74
2023/04/17 22:38:14;;;;;;;9.23;4.50;;;10.70;99.90;;;;;;6242622;23;20415;-75
2023/04/17 22:40:44;;;;;;;9.50;5.00;;;10.50;99.90;;;;;;6238806;23;20414;-75
2023/04/17 22:43:18;;;;;;;5.27;4.00;;;10.50;99.90;;;;;;6242441;22;20432;-76
2023/04/17 22:45:45;;;;;;;5.00;3.77;;;10.50;99.90;;;;;;6242541;23;20409;-75
2023/04/17 22:48:20;;;;;;;6.97;4.30;;;10.40;99.90;;;;;;6242076;23;20506;-76
2023/04/17 22:50:48;;;;;;;5.10;4.60;;;10.40;99.90;;;;;;6243927;23;20423;-75
2023/04/17 22:53:22;;;;;;;5.90;3.77;;;10.30;99.90;;;;;;6249223;22;20410;-74
2023/04/17 22:56:01;;;;;;;5.27;4.50;;;10.40;99.90;;;;;;6250611;23;20753;-75
2023/04/17 22:58:35;;;;;;;5.07;3.30;;;10.40;99.90;;;;;;6242607;23;20476;-75
2023/04/17 23:01:05;;;;;;;7.23;4.23;;;10.30;99.90;;;;;;6249049;23;20439;-76
2023/04/17 23:03:54;;;;;;;7.77;4.67;;;10.20;99.90;;;;;;6261001;22;20495;-75
2023/04/17 23:07:11;;;;;;;6.40;4.10;;;10.20;99.90;;;;;;6252623;23;20744;-75
2023/04/17 23:14:11;;;;;;;8.43;6.60;;;10.10;99.90;;;;;;6057291;23;20418;-75
2023/04/17 23:17:10;;;;;;;7.33;4.27;;;10.20;99.90;;;;;;6099830;23;20457;-75
2023/04/17 23:19:50;;;;;;;7.77;4.07;;;10.20;99.90;;;;;;6240044;23;20384;-75
2023/04/17 23:25:42;;;;;;;6.90;4.40;;;10.10;99.90;;;;;;6224687;22;20399;-75
2023/04/17 23:28:11;;;;;;;6.03;4.20;;;10.00;99.90;;;;;;6242110;23;20406;-76
2023/04/17 23:30:38;;;;;;;7.77;4.43;;;9.90;99.90;;;;;;6241910;23;20477;-74
2023/04/17 23:33:08;;;;;;;4.80;3.60;;;9.80;99.90;;;;;;6241481;22;20431;-75
2023/04/17 23:35:35;;;;;;;9.67;3.37;;;9.80;99.90;;;;;;6214906;23;20921;-75
2023/04/17 23:38:12;;;;;;;10.50;3.63;;;9.90;99.90;;;;;;6240514;23;20405;-75
2023/04/17 23:40:40;;;;;;;5.60;5.00;;;9.70;99.90;;;;;;6239972;23;20390;-75
2023/04/17 23:43:20;;;;;;;7.43;4.60;;;9.70;99.90;;;;;;6237176;22;20433;-74
2023/04/17 23:45:47;;;;;;;4.83;4.10;;;9.70;99.90;;;;;;6239290;23;20424;-75
2023/04/17 23:48:16;;;;;;;6.70;4.67;;;9.70;99.90;;;;;;6240773;23;20411;-75
2023/04/17 23:50:44;;;;;;;5.90;3.87;;;9.80;99.90;;;;;;6239924;23;20728;-74
2023/04/17 23:53:11;;;;;;;16.37;5.70;;;9.80;99.90;;;;;;6165297;23;20427;-74
2023/04/17 23:55:39;;;;;;;6.40;4.63;;;9.70;99.90;;;;;;6164338;23;20468;-75
2023/04/17 23:58:06;;;;;;;5.07;3.73;;;9.70;99.90;;;;;;6240892;23;20415;-74
